createdAt,value
2018-05-07T00:06:24.195Z,16.34
2018-05-07T00:06:55.190Z,16.24
2018-05-07T00:07:55.141Z,16.21
2018-05-07T00:08:55.268Z,16.12
2018-05-07T00:09:55.739Z,16.12
2018-05-07T00:10:55.299Z,16.12
2018-05-07T00:11:55.140Z,16.02
2018-05-07T00:12:55.105Z,15.94
2018-05-07T00:13:55.109Z,15.84
2018-05-07T00:14:55.081Z,15.87
2018-05-07T00:15:55.082Z,15.83
2018-05-07T00:16:55.107Z,15.84
2018-05-07T00:17:55.075Z,15.82
2018-05-07T00:18:55.047Z,15.76
2018-05-07T00:19:55.079Z,15.68
2018-05-07T00:20:55.072Z,15.69
2018-05-07T00:21:55.041Z,15.65
2018-05-07T00:22:55.114Z,15.64
2018-05-07T00:23:55.017Z,15.65
2018-05-07T00:24:55.020Z,15.62
2018-05-07T00:25:54.988Z,15.54
2018-05-07T00:26:54.988Z,15.50
2018-05-07T00:27:55.236Z,15.59
2018-05-07T00:28:54.963Z,15.68
2018-05-07T00:29:54.945Z,15.65
2018-05-07T00:30:54.948Z,15.68
2018-05-07T00:31:54.928Z,15.56
2018-05-07T00:32:55.160Z,15.69
2018-05-07T00:33:55.013Z,15.64
2018-05-07T00:34:55.036Z,15.60
2018-05-07T00:35:55.710Z,15.62
2018-05-07T00:36:54.940Z,15.54
2018-05-07T00:37:54.880Z,15.56
2018-05-07T00:38:54.936Z,15.59
2018-05-07T00:39:54.864Z,15.64
2018-05-07T00:40:54.876Z,15.64
2018-05-07T00:41:54.860Z,15.65
2018-05-07T00:42:56.191Z,15.67
2018-05-07T00:43:54.917Z,15.65
2018-05-07T00:44:54.817Z,15.64
2018-05-07T00:45:55.700Z,15.62
2018-05-07T00:46:54.864Z,15.60
2018-05-07T00:47:55.899Z,15.62
2018-05-07T00:48:55.662Z,15.67
2018-05-07T00:49:54.793Z,15.59
2018-05-07T00:50:54.779Z,15.57
2018-05-07T00:51:54.757Z,15.56
2018-05-07T00:52:55.061Z,15.53
2018-05-07T00:53:54.730Z,15.49
2018-05-07T00:54:54.774Z,15.43
2018-05-07T00:55:54.713Z,15.50
2018-05-07T00:56:54.702Z,15.49
2018-05-07T00:57:54.766Z,15.51
2018-05-07T00:58:54.782Z,15.50
2018-05-07T01:00:00.240Z,15.39
2018-05-07T01:00:56.757Z,15.56
2018-05-07T01:01:54.667Z,15.44
2018-05-07T01:02:54.702Z,15.49
2018-05-07T01:03:54.770Z,15.53
2018-05-07T01:04:55.169Z,15.49
2018-05-07T01:05:54.670Z,15.47
2018-05-07T01:06:54.635Z,15.49
2018-05-07T01:07:54.645Z,15.53
2018-05-07T01:08:54.585Z,15.39
2018-05-07T04:23:36.384Z,14.29
2018-05-07T04:24:31.328Z,14.32
2018-05-07T04:25:31.229Z,14.37
2018-05-07T04:26:31.222Z,14.32
2018-05-07T04:33:44.342Z,14.37
2018-05-07T04:34:44.249Z,14.37
2018-05-07T04:35:44.189Z,14.36
2018-05-07T04:36:44.541Z,14.36
2018-05-07T04:37:44.152Z,14.33
2018-05-07T04:38:44.132Z,14.33
2018-05-07T04:39:44.112Z,14.39
2018-05-07T04:40:44.207Z,14.35
2018-05-07T04:41:44.236Z,14.46
2018-05-07T04:42:44.091Z,14.39
2018-05-07T04:43:44.064Z,14.37
2018-05-07T04:44:44.069Z,14.42
2018-05-07T04:45:44.061Z,14.39
2018-05-07T04:46:44.043Z,14.50
2018-05-07T04:47:44.028Z,14.45
2018-05-07T04:48:44.077Z,14.47
2018-05-07T04:49:44.002Z,14.52
2018-05-07T04:50:44.006Z,14.58
2018-05-07T04:51:44.001Z,14.50
2018-05-07T04:52:43.975Z,14.57
2018-05-07T04:53:44.055Z,14.55
2018-05-07T04:54:43.954Z,14.61
2018-05-07T04:55:44.018Z,14.64
2018-05-07T04:56:43.935Z,14.69
2018-05-07T04:57:43.937Z,14.64
2018-05-07T04:58:43.923Z,14.65
2018-05-07T04:59:43.915Z,14.73
2018-05-07T05:00:43.896Z,14.75
2018-05-07T05:01:43.884Z,14.75
2018-05-07T05:02:43.864Z,14.80
2018-05-07T05:03:43.863Z,14.88
2018-05-07T05:04:43.868Z,14.88
2018-05-07T05:05:43.837Z,14.80
2018-05-07T05:06:43.830Z,14.89
2018-05-07T05:07:43.854Z,14.92
2018-05-07T05:08:43.882Z,14.89
2018-05-07T05:09:44.006Z,14.81
2018-05-07T05:10:43.794Z,14.83
2018-05-07T05:11:43.795Z,14.84
2018-05-07T05:12:43.771Z,14.83
2018-05-07T05:13:43.751Z,14.89
2018-05-07T05:14:43.747Z,15.01
2018-05-07T05:15:43.771Z,14.95
2018-05-07T05:16:43.731Z,15.01
2018-05-07T05:17:43.724Z,14.99
2018-05-07T05:18:43.703Z,15.02
2018-05-07T05:19:43.703Z,15.14
2018-05-07T05:20:43.717Z,15.16
2018-05-07T05:21:43.681Z,15.19
2018-05-07T05:22:43.697Z,15.19
2018-05-07T05:23:43.652Z,15.23
2018-05-07T05:24:43.655Z,15.32
2018-05-07T05:25:43.641Z,15.27
2018-05-07T05:26:43.634Z,15.34
2018-05-07T05:27:43.651Z,15.41
2018-05-07T05:28:43.604Z,15.36
2018-05-07T05:29:43.597Z,15.49
2018-05-07T05:30:43.589Z,15.50
2018-05-07T05:31:43.578Z,15.44
2018-05-07T05:32:43.603Z,15.54
2018-05-07T05:33:43.562Z,15.56
2018-05-07T05:34:43.552Z,15.53
2018-05-07T05:35:43.552Z,15.57
2018-05-07T05:36:43.537Z,15.64
2018-05-07T05:37:43.975Z,15.65
2018-05-07T05:38:43.508Z,15.67
2018-05-07T05:39:43.503Z,15.62
2018-05-07T05:40:43.484Z,15.67
2018-05-07T05:41:43.494Z,15.60
2018-05-07T05:42:43.475Z,15.65
2018-05-07T05:43:43.642Z,15.78
2018-05-07T05:44:43.460Z,15.75
2018-05-07T05:45:43.445Z,15.82
2018-05-07T05:46:43.442Z,15.90
2018-05-07T05:47:43.432Z,15.83
2018-05-07T05:48:43.417Z,15.89
2018-05-07T05:49:43.412Z,15.96
2018-05-07T05:50:43.392Z,15.92
2018-05-07T05:51:43.394Z,16.04
2018-05-07T05:52:43.382Z,16.01
2018-05-07T05:53:43.382Z,16.02
2018-05-07T05:54:43.391Z,16.04
2018-05-07T05:55:43.346Z,16.09
2018-05-07T05:56:43.343Z,16.12
2018-05-07T05:57:43.329Z,16.09
2018-05-07T05:58:43.332Z,16.11
2018-05-07T05:59:43.343Z,16.14
2018-05-07T06:00:43.317Z,16.20
2018-05-07T06:01:43.296Z,16.24
2018-05-07T06:02:43.300Z,16.28
2018-05-07T06:03:43.328Z,16.25
2018-05-07T06:04:43.303Z,16.24
2018-05-07T06:05:43.262Z,16.24
2018-05-07T06:06:43.249Z,16.35
2018-05-07T06:07:43.240Z,16.38
2018-05-07T06:08:43.224Z,16.33
2018-05-07T06:09:43.250Z,16.31
2018-05-07T06:10:43.209Z,16.39
2018-05-07T06:11:43.206Z,16.52
2018-05-07T06:12:43.221Z,16.52
2018-05-07T06:13:43.186Z,16.52
2018-05-07T06:14:43.334Z,16.56
2018-05-07T06:15:43.167Z,16.58
2018-05-07T06:16:43.190Z,16.64
2018-05-07T06:17:43.157Z,16.64
2018-05-07T06:18:43.146Z,16.63
2018-05-07T06:19:43.167Z,16.66
2018-05-07T06:20:43.126Z,16.68
2018-05-07T06:21:43.121Z,16.73
2018-05-07T06:22:43.115Z,16.73
2018-05-07T06:23:43.110Z,16.71
2018-05-07T06:24:43.114Z,16.73
2018-05-07T06:25:43.089Z,16.78
2018-05-07T06:26:43.224Z,16.78
2018-05-07T06:27:43.060Z,16.75
2018-05-07T06:28:43.061Z,16.89
2018-05-07T06:29:43.051Z,16.82
2018-05-07T06:30:43.040Z,16.94
2018-05-07T06:31:43.021Z,16.97
2018-05-07T06:32:43.157Z,16.91
2018-05-07T06:33:43.017Z,16.98
2018-05-07T06:34:43.014Z,16.93
2018-05-07T06:35:42.998Z,16.98
2018-05-07T06:36:42.988Z,17.06
2018-05-07T06:37:42.989Z,17.04
2018-05-07T06:38:42.980Z,17.01
2018-05-07T06:39:42.963Z,17.21
2018-05-07T06:40:42.950Z,17.08
2018-05-07T06:41:42.955Z,17.16
2018-05-07T06:42:42.939Z,17.12
2018-05-07T06:43:42.967Z,17.16
2018-05-07T06:44:42.920Z,17.18
2018-05-07T06:45:42.912Z,17.25
2018-05-07T06:46:42.897Z,17.28
2018-05-07T06:47:42.900Z,17.18
2018-05-07T06:48:42.912Z,17.22
2018-05-07T06:49:42.884Z,17.31
2018-05-07T06:50:42.879Z,17.31
2018-05-07T06:51:42.867Z,17.30
2018-05-07T06:52:42.853Z,17.28
2018-05-07T06:53:43.015Z,17.26
2018-05-07T06:54:42.837Z,17.26
2018-05-07T06:55:42.835Z,17.40
2018-05-07T06:56:42.822Z,17.40
2018-05-07T06:57:42.805Z,17.49
2018-05-07T06:58:42.808Z,17.41
2018-05-07T06:59:42.859Z,17.40
2018-05-07T07:00:42.791Z,17.49
2018-05-07T07:01:42.784Z,17.28
2018-05-07T07:02:42.875Z,17.48
2018-05-07T07:03:42.763Z,17.43
2018-05-07T07:04:42.756Z,17.38
2018-05-07T07:05:42.766Z,17.41
2018-05-07T07:06:42.744Z,17.40
2018-05-07T07:07:42.733Z,17.38
2018-05-07T07:08:42.812Z,17.41
2018-05-07T07:09:42.750Z,17.33
2018-05-07T07:10:42.743Z,17.33
2018-05-07T07:11:42.700Z,17.34
2018-05-07T07:12:42.695Z,17.37
2018-05-07T07:13:42.695Z,17.41
2018-05-07T07:14:42.688Z,17.41
2018-05-07T07:15:42.671Z,17.41
2018-05-07T07:16:42.661Z,17.36
2018-05-07T07:17:42.659Z,17.41
2018-05-07T07:18:42.641Z,17.46
2018-05-07T07:19:42.634Z,17.44
2018-05-07T07:20:42.659Z,17.41
2018-05-07T07:21:42.690Z,17.40
2018-05-07T07:22:42.622Z,17.58
2018-05-07T07:23:42.610Z,17.46
2018-05-07T07:24:42.603Z,17.55
2018-05-07T07:25:42.744Z,17.58
2018-05-07T07:26:42.583Z,17.55
2018-05-07T07:27:42.573Z,17.59
2018-05-07T07:28:42.573Z,17.48
2018-05-07T07:29:42.562Z,17.46
2018-05-07T07:30:42.553Z,17.52
2018-05-07T07:31:42.693Z,17.56
2018-05-07T07:32:42.546Z,17.54
2018-05-07T07:33:42.615Z,17.49
2018-05-07T07:34:42.521Z,17.58
2018-05-07T07:35:42.528Z,17.63
2018-05-07T07:36:43.499Z,17.71
2018-05-07T07:37:42.504Z,17.75
2018-05-07T07:38:42.579Z,17.77
2018-05-07T07:39:42.491Z,17.70
2018-05-07T07:40:42.488Z,17.74
2018-05-07T07:41:42.479Z,17.77
2018-05-07T07:42:42.467Z,17.82
2018-05-07T07:43:42.466Z,17.86
2018-05-07T07:44:42.451Z,17.82
2018-05-07T07:45:42.440Z,17.89
2018-05-07T07:46:42.427Z,17.93
2018-05-07T07:47:42.434Z,17.90
2018-05-07T07:48:42.414Z,17.84
2018-05-07T07:49:42.493Z,18.00
2018-05-07T07:50:42.406Z,18.10
2018-05-07T07:51:42.391Z,18.18
2018-05-07T07:52:42.383Z,18.21
2018-05-07T07:53:42.421Z,18.23
2018-05-07T07:54:42.375Z,18.27
2018-05-07T07:55:42.560Z,18.27
2018-05-07T07:56:42.369Z,18.29
2018-05-07T07:57:42.355Z,18.37
2018-05-07T07:58:42.340Z,18.47
2018-05-07T07:59:42.332Z,18.44
2018-05-07T08:00:42.563Z,18.44
2018-05-07T08:01:42.379Z,18.54
2018-05-07T08:02:42.328Z,18.52
2018-05-07T08:03:42.322Z,18.57
2018-05-07T08:04:42.304Z,18.57
2018-05-07T08:05:42.326Z,18.69
2018-05-07T08:06:42.289Z,18.70
2018-05-07T08:07:42.315Z,18.66
2018-05-07T08:08:42.281Z,18.76
2018-05-07T08:09:42.263Z,18.81
2018-05-07T08:10:42.260Z,18.84
2018-05-07T08:11:42.264Z,18.88
2018-05-07T08:12:42.282Z,18.84
2018-05-07T08:13:42.236Z,18.98
2018-05-07T08:14:42.242Z,19.00
2018-05-07T08:15:42.235Z,18.90
2018-05-07T08:16:42.237Z,18.92
2018-05-07T08:17:42.252Z,19.07
2018-05-07T08:18:42.207Z,19.07
2018-05-07T08:19:42.205Z,19.08
2018-05-07T08:20:42.201Z,19.04
2018-05-07T08:21:42.193Z,19.00
2018-05-07T08:22:42.213Z,18.94
2018-05-07T08:23:42.181Z,19.04
2018-05-07T08:24:42.211Z,19.10
2018-05-07T08:25:42.180Z,19.10
2018-05-07T08:26:42.160Z,18.99
2018-05-07T08:27:43.101Z,19.08
2018-05-07T08:28:42.145Z,19.13
2018-05-07T08:29:42.180Z,19.10
2018-05-07T08:30:42.200Z,19.08
2018-05-07T08:31:42.134Z,19.18
2018-05-07T08:32:42.123Z,19.14
2018-05-07T08:33:42.112Z,19.16
2018-05-07T08:34:42.109Z,19.08
2018-05-07T08:35:42.101Z,19.19
2018-05-07T08:36:42.132Z,19.14
2018-05-07T08:37:42.086Z,19.32
2018-05-07T08:38:42.077Z,19.26
2018-05-07T08:39:42.069Z,19.29
2018-05-07T08:40:42.070Z,19.40
2018-05-07T08:41:42.068Z,19.55
2018-05-07T08:42:42.063Z,19.51
2018-05-07T08:43:42.039Z,19.63
2018-05-07T08:44:42.051Z,19.63
2018-05-07T08:45:42.037Z,19.71
2018-05-07T08:46:42.051Z,19.71
2018-05-07T08:47:42.028Z,19.84
2018-05-07T08:48:42.021Z,19.83
2018-05-07T08:49:42.014Z,19.87
2018-05-07T08:50:42.016Z,19.98
2018-05-07T08:51:42.134Z,19.98
2018-05-07T08:52:42.084Z,20.06
2018-05-07T08:53:41.997Z,20.11
2018-05-07T08:54:41.992Z,20.11
2018-05-07T08:55:41.987Z,20.16
2018-05-07T08:56:41.980Z,20.17
2018-05-07T08:57:42.024Z,20.21
2018-05-07T08:58:41.970Z,20.33
2018-05-07T08:59:41.970Z,20.39
2018-05-07T09:00:41.965Z,20.62
2018-05-07T09:01:41.949Z,20.70
2018-05-07T09:02:42.570Z,20.76
2018-05-07T09:03:41.950Z,20.88
2018-05-07T09:04:41.948Z,20.99
2018-05-07T09:05:41.936Z,21.06
2018-05-07T09:06:41.934Z,21.13
2018-05-07T09:07:41.921Z,21.10
2018-05-07T09:08:42.086Z,21.27
2018-05-07T09:09:41.910Z,21.29
2018-05-07T09:10:41.919Z,21.35
2018-05-07T09:11:41.903Z,21.32
2018-05-07T09:12:41.912Z,21.50
2018-05-07T09:13:41.935Z,21.53
2018-05-07T09:14:41.931Z,21.61
2018-05-07T09:15:41.910Z,21.68
2018-05-07T09:16:41.892Z,21.67
2018-05-07T09:17:41.887Z,21.86
2018-05-07T09:18:41.886Z,21.90
2018-05-07T09:19:41.912Z,22.02
2018-05-07T09:20:41.885Z,22.07
2018-05-07T09:21:41.864Z,22.03
2018-05-07T09:22:41.874Z,22.10
2018-05-07T09:23:41.877Z,22.21
2018-05-07T09:24:41.915Z,22.36
2018-05-07T09:25:41.861Z,22.42
2018-05-07T09:26:41.876Z,22.43
2018-05-07T09:27:41.867Z,22.43
2018-05-07T09:28:41.850Z,22.45
2018-05-07T09:29:41.899Z,22.51
2018-05-07T09:30:41.863Z,22.52
2018-05-07T09:31:41.858Z,22.62
2018-05-07T09:32:41.842Z,22.68
2018-05-07T09:33:41.857Z,22.72
2018-05-07T09:34:41.852Z,22.76
2018-05-07T09:35:41.883Z,22.92
2018-05-07T09:36:41.836Z,23.01
2018-05-07T09:37:41.873Z,23.02
2018-05-07T09:38:41.850Z,23.13
2018-05-07T09:39:41.854Z,23.15
2018-05-07T09:40:41.852Z,23.20
2018-05-07T09:41:41.847Z,23.36
2018-05-07T09:42:41.899Z,23.35
2018-05-07T09:43:41.856Z,23.40
2018-05-07T09:44:41.851Z,23.53
2018-05-07T09:45:41.847Z,23.60
2018-05-07T09:46:41.855Z,23.66
2018-05-07T09:47:41.868Z,23.72
2018-05-07T09:48:41.870Z,23.72
2018-05-07T09:49:42.126Z,23.78
2018-05-07T09:50:41.847Z,23.78
2018-05-07T09:51:41.861Z,23.83
2018-05-07T09:52:41.861Z,23.84
2018-05-07T09:53:41.868Z,23.87
2018-05-07T09:54:41.865Z,23.98
2018-05-07T09:55:41.874Z,24.00
2018-05-07T09:56:41.867Z,24.12
2018-05-07T09:57:41.858Z,24.20
2018-05-07T09:58:41.891Z,24.28
2018-05-07T09:59:41.863Z,24.35
2018-05-07T10:00:41.914Z,24.32
2018-05-07T10:01:41.878Z,24.45
2018-05-07T10:02:41.920Z,24.52
2018-05-07T10:03:41.887Z,24.60
2018-05-07T10:04:41.887Z,24.68
2018-05-07T10:05:41.885Z,24.64
2018-05-07T10:06:41.894Z,24.83
2018-05-07T10:07:41.908Z,24.91
2018-05-07T10:08:41.908Z,24.99
2018-05-07T10:09:41.897Z,25.09
2018-05-07T10:10:41.919Z,25.21
2018-05-07T10:11:41.925Z,25.18
2018-05-07T10:12:42.005Z,25.17
2018-05-07T10:13:41.923Z,25.32
2018-05-07T10:14:41.939Z,25.40
2018-05-07T10:15:41.926Z,25.54
2018-05-07T10:16:41.940Z,25.69
2018-05-07T10:17:41.951Z,25.75
2018-05-07T10:18:42.014Z,25.85
2018-05-07T10:19:41.963Z,25.95
2018-05-07T10:20:41.969Z,25.99
2018-05-07T10:21:41.972Z,26.20
2018-05-07T10:22:41.964Z,26.35
2018-05-07T10:23:41.977Z,26.48
2018-05-07T10:24:41.988Z,26.58
2018-05-07T10:25:42.000Z,26.70
2018-05-07T10:26:41.997Z,26.80
2018-05-07T10:27:41.998Z,26.89
2018-05-07T10:28:42.018Z,26.87
2018-05-07T10:29:42.032Z,26.99
2018-05-07T10:30:42.030Z,27.07
2018-05-07T10:31:42.045Z,27.21
2018-05-07T10:32:42.045Z,27.28
2018-05-07T10:33:42.051Z,27.21
2018-05-07T10:34:42.076Z,27.25
2018-05-07T10:35:42.070Z,27.13
2018-05-07T10:36:42.063Z,27.07
2018-05-07T10:37:42.073Z,26.94
2018-05-07T10:38:42.085Z,26.77
2018-05-07T10:39:42.178Z,26.66
2018-05-07T10:40:42.088Z,26.62
2018-05-07T10:41:42.175Z,26.51
2018-05-07T10:42:42.170Z,26.51
2018-05-07T10:43:42.118Z,26.45
2018-05-07T10:44:42.125Z,26.40
2018-05-07T10:45:42.131Z,26.45
2018-05-07T10:46:42.128Z,26.30
2018-05-07T10:47:42.165Z,26.30
2018-05-07T10:48:42.137Z,26.10
2018-05-07T10:49:42.155Z,25.91
2018-05-07T10:50:42.138Z,25.75
2018-05-07T10:51:42.155Z,25.52
2018-05-07T10:52:42.148Z,25.43
2018-05-07T10:53:42.186Z,25.38
2018-05-07T10:54:42.162Z,25.27
2018-05-07T10:55:42.157Z,25.32
2018-05-07T10:56:42.154Z,25.24
2018-05-07T10:57:42.227Z,25.10
2018-05-07T10:58:42.164Z,25.14
2018-05-07T10:59:42.173Z,25.10
2018-05-07T11:00:42.178Z,25.00
2018-05-07T11:01:42.262Z,24.84
2018-05-07T11:02:42.171Z,24.71
2018-05-07T11:03:42.210Z,24.68
2018-05-07T11:04:42.176Z,24.43
2018-05-07T11:05:42.168Z,24.34
2018-05-07T11:06:42.162Z,24.25
2018-05-07T11:07:42.164Z,24.22
2018-05-07T11:08:42.175Z,24.12
2018-05-07T11:09:42.211Z,23.97
2018-05-07T11:10:42.182Z,23.85
2018-05-07T11:11:42.172Z,23.85
2018-05-07T11:12:42.180Z,23.80
2018-05-07T11:13:42.166Z,23.85
2018-05-07T11:14:42.242Z,23.84
2018-05-07T11:15:42.164Z,23.88
2018-05-07T11:16:42.167Z,23.90
2018-05-07T11:17:42.161Z,23.87
2018-05-07T11:18:42.165Z,23.85
2018-05-07T11:19:42.203Z,23.95
2018-05-07T11:20:42.244Z,23.95
2018-05-07T11:21:42.158Z,24.05
2018-05-07T11:22:42.162Z,24.06
2018-05-07T11:23:42.165Z,24.21
2018-05-07T11:24:42.162Z,24.25
2018-05-07T11:25:42.243Z,24.27
2018-05-07T11:26:42.164Z,24.32
2018-05-07T11:27:42.163Z,24.46
2018-05-07T11:28:42.153Z,24.43
2018-05-07T11:29:42.189Z,24.50
2018-05-07T11:30:42.217Z,24.67
2018-05-07T11:31:42.151Z,24.93
2018-05-07T11:32:42.139Z,25.23
2018-05-07T11:33:42.144Z,25.51
2018-05-07T11:34:42.144Z,25.76
2018-05-07T11:35:42.689Z,26.06
2018-05-07T11:36:42.230Z,26.12
2018-05-07T11:37:42.193Z,26.44
2018-05-07T11:38:42.153Z,26.73
2018-05-07T11:39:42.156Z,27.17
2018-05-07T11:40:42.165Z,27.49
2018-05-07T11:41:42.176Z,27.82
2018-05-07T11:42:42.197Z,28.17
2018-05-07T11:43:42.169Z,28.39
2018-05-07T11:44:42.177Z,28.19
2018-05-07T11:45:42.319Z,28.15
2018-05-07T11:46:42.189Z,28.40
2018-05-07T11:47:42.211Z,28.62
2018-05-07T11:48:42.190Z,29.04
2018-05-07T11:49:42.199Z,29.15
2018-05-07T11:50:42.207Z,29.31
2018-05-07T11:51:42.248Z,29.37
2018-05-07T11:52:42.216Z,29.46
2018-05-07T11:53:42.223Z,29.61
2018-05-07T11:54:42.243Z,29.80
2018-05-07T11:55:42.276Z,30.04
2018-05-07T11:56:42.629Z,30.27
2018-05-07T11:57:42.250Z,30.51
2018-05-07T11:58:42.320Z,30.77
2018-05-07T11:59:42.261Z,30.84
2018-05-07T12:00:42.291Z,30.92
2018-05-07T12:01:42.287Z,30.83
2018-05-07T12:02:42.391Z,31.07
2018-05-07T12:03:42.302Z,31.04
2018-05-07T12:04:42.300Z,31.04
2018-05-07T12:05:42.323Z,31.06
2018-05-07T12:06:42.322Z,30.95
2018-05-07T12:07:42.394Z,30.69
2018-05-07T12:08:42.332Z,30.46
2018-05-07T12:09:42.343Z,30.16
2018-05-07T12:10:42.345Z,29.92
2018-05-07T12:11:42.367Z,29.68
2018-05-07T12:12:42.365Z,29.61
2018-05-07T12:13:42.385Z,29.36
2018-05-07T12:14:42.377Z,29.19
2018-05-07T12:15:42.446Z,28.93
2018-05-07T12:16:42.389Z,28.67
2018-05-07T12:17:42.390Z,28.49
2018-05-07T12:18:42.420Z,28.34
2018-05-07T12:19:42.547Z,28.24
2018-05-07T12:20:42.412Z,28.02
2018-05-07T12:21:42.417Z,27.70
2018-05-07T12:22:42.409Z,27.50
2018-05-07T12:23:42.419Z,27.34
2018-05-07T12:24:42.414Z,27.22
2018-05-07T12:25:42.423Z,27.13
2018-05-07T12:26:42.433Z,27.03
2018-05-07T12:27:42.418Z,26.82
2018-05-07T12:28:42.434Z,26.66
2018-05-07T12:29:42.456Z,26.58
2018-05-07T12:30:42.423Z,26.55
2018-05-07T12:31:42.650Z,26.47
2018-05-07T12:32:42.441Z,26.48
2018-05-07T12:33:42.427Z,26.25
2018-05-07T12:34:42.511Z,26.07
2018-05-07T12:35:42.427Z,25.77
2018-05-07T12:36:42.442Z,25.72
2018-05-07T12:37:42.470Z,25.64
2018-05-07T12:38:42.442Z,25.61
2018-05-07T12:39:42.454Z,25.57
2018-05-07T12:40:42.461Z,25.51
2018-05-07T12:41:42.445Z,25.64
2018-05-07T12:42:42.454Z,25.58
2018-05-07T12:43:42.445Z,25.54
2018-05-07T12:44:42.441Z,25.52
2018-05-07T12:45:42.517Z,25.47
2018-05-07T12:46:43.756Z,25.50
2018-05-07T12:47:42.437Z,25.35
2018-05-07T12:48:42.449Z,25.36
2018-05-07T12:49:42.444Z,25.36
2018-05-07T12:50:42.449Z,25.35
2018-05-07T12:51:42.472Z,25.30
2018-05-07T12:52:42.484Z,25.30
2018-05-07T12:53:42.441Z,25.27
2018-05-07T12:54:42.433Z,25.32
2018-05-07T12:55:43.232Z,25.28
2018-05-07T12:56:42.467Z,25.38
2018-05-07T12:57:42.431Z,25.28
2018-05-07T12:58:42.439Z,25.17
2018-05-07T12:59:42.444Z,25.15
2018-05-07T13:00:42.444Z,25.06
2018-05-07T13:01:42.775Z,25.10
2018-05-07T13:02:42.448Z,25.24
2018-05-07T13:03:42.448Z,25.21
2018-05-07T13:04:42.428Z,25.13
2018-05-07T13:05:42.433Z,25.14
2018-05-07T13:06:42.435Z,25.05
2018-05-07T13:07:42.447Z,25.08
2018-05-07T13:08:42.446Z,25.14
2018-05-07T13:09:42.432Z,25.03
2018-05-07T13:10:42.430Z,25.08
2018-05-07T13:11:42.447Z,24.91
2018-05-07T13:12:42.420Z,24.87
2018-05-07T13:13:42.453Z,24.93
2018-05-07T13:14:42.463Z,24.96
2018-05-07T13:15:42.448Z,24.98
2018-05-07T13:16:42.415Z,24.88
2018-05-07T13:17:42.420Z,24.99
2018-05-07T13:18:42.420Z,24.93
2018-05-07T13:19:42.443Z,24.99
2018-05-07T13:20:42.425Z,24.93
2018-05-07T13:21:42.779Z,25.00
2018-05-07T13:22:42.409Z,24.90
2018-05-07T13:23:42.408Z,24.88
2018-05-07T13:24:43.288Z,24.93
2018-05-07T13:25:42.405Z,24.93
2018-05-07T13:26:42.406Z,24.99
2018-05-07T13:27:42.405Z,24.93
2018-05-07T13:28:42.390Z,24.96
2018-05-07T13:29:42.396Z,25.00
2018-05-07T13:30:42.540Z,25.09
2018-05-07T13:31:42.396Z,25.06
2018-05-07T13:32:42.390Z,25.15
2018-05-07T13:33:42.391Z,25.15
2018-05-07T13:34:42.389Z,25.14
2018-05-07T13:35:42.393Z,25.24
2018-05-07T13:36:42.431Z,25.27
2018-05-07T13:37:42.397Z,25.24
2018-05-07T13:38:42.374Z,25.27
2018-05-07T13:39:42.375Z,25.21
2018-05-07T13:40:42.378Z,25.25
2018-05-07T13:41:42.413Z,25.10
2018-05-07T13:42:42.372Z,25.21
2018-05-07T13:43:42.373Z,25.21
2018-05-07T13:44:42.372Z,25.17
2018-05-07T13:45:42.369Z,25.20
2018-05-07T13:46:42.405Z,25.24
2018-05-07T13:47:42.370Z,25.28
2018-05-07T13:48:42.408Z,25.28
2018-05-07T13:49:42.359Z,25.33
2018-05-07T13:50:42.364Z,25.47
2018-05-07T13:51:42.355Z,25.32
2018-05-07T13:52:42.925Z,25.40
2018-05-07T13:53:42.622Z,25.33
2018-05-07T13:54:42.358Z,25.38
2018-05-07T13:55:42.361Z,25.33
2018-05-07T13:56:42.347Z,25.32
2018-05-07T13:57:42.355Z,25.40
2018-05-07T13:58:42.355Z,25.54
2018-05-07T13:59:42.431Z,25.57
2018-05-07T14:00:42.347Z,25.64
2018-05-07T14:01:42.338Z,25.72
2018-05-07T14:02:42.383Z,25.65
2018-05-07T14:03:42.349Z,25.75
2018-05-07T14:04:42.362Z,25.82
2018-05-07T14:05:42.398Z,25.77
2018-05-07T14:06:42.349Z,25.82
2018-05-07T14:07:42.465Z,25.87
2018-05-07T14:08:42.345Z,25.83
2018-05-07T14:09:42.334Z,25.92
2018-05-07T14:10:42.331Z,26.06
2018-05-07T14:11:42.345Z,26.21
2018-05-07T14:12:42.632Z,26.47
2018-05-07T14:13:42.333Z,26.58
2018-05-07T14:14:42.343Z,26.57
2018-05-07T14:15:42.361Z,26.66
2018-05-07T14:16:42.462Z,26.82
2018-05-07T14:17:42.327Z,26.85
2018-05-07T14:18:42.336Z,27.04
2018-05-07T14:19:42.363Z,27.13
2018-05-07T14:20:42.336Z,27.14
2018-05-07T14:21:42.340Z,27.24
2018-05-07T14:22:42.372Z,27.31
2018-05-07T14:23:42.331Z,27.28
2018-05-07T14:24:42.321Z,27.25
2018-05-07T14:25:42.487Z,27.17
2018-05-07T14:26:42.317Z,27.18
2018-05-07T14:27:42.333Z,27.13
2018-05-07T14:28:42.331Z,27.06
2018-05-07T14:29:42.345Z,27.09
2018-05-07T14:30:42.327Z,27.14
2018-05-07T14:31:42.360Z,27.17
2018-05-07T14:32:43.278Z,27.29
2018-05-07T14:33:42.314Z,27.25
2018-05-07T14:34:42.328Z,27.19
2018-05-07T14:35:42.332Z,27.18
2018-05-07T14:36:42.305Z,27.09
2018-05-07T14:37:42.332Z,27.09
2018-05-07T14:38:42.381Z,27.09
2018-05-07T14:39:42.322Z,27.07
2018-05-07T14:40:42.318Z,27.04
2018-05-07T14:41:42.322Z,27.00
2018-05-07T14:42:42.366Z,27.07
2018-05-07T14:43:42.316Z,27.17
2018-05-07T14:44:42.311Z,27.29
2018-05-07T14:45:42.314Z,27.50
2018-05-07T14:46:42.309Z,27.75
2018-05-07T14:47:42.307Z,28.02
2018-05-07T14:48:42.313Z,28.25
2018-05-07T14:49:42.313Z,28.52
2018-05-07T14:50:42.316Z,28.59
2018-05-07T14:51:42.316Z,28.77
2018-05-07T14:52:42.441Z,28.92
2018-05-07T14:53:42.354Z,29.24
2018-05-07T14:54:42.319Z,29.24
2018-05-07T14:55:42.356Z,29.45
2018-05-07T14:56:42.326Z,29.43
2018-05-07T14:57:42.323Z,29.36
2018-05-07T14:58:42.398Z,29.12
2018-05-07T14:59:42.322Z,28.93
2018-05-07T15:00:42.317Z,28.80
2018-05-07T15:01:42.323Z,28.61
2018-05-07T15:02:42.341Z,28.52
2018-05-07T15:03:42.321Z,28.46
2018-05-07T15:04:42.336Z,28.46
2018-05-07T15:05:42.332Z,28.49
2018-05-07T15:06:42.329Z,28.73
2018-05-07T15:07:42.329Z,29.00
2018-05-07T15:08:42.365Z,29.09
2018-05-07T15:09:42.339Z,29.24
2018-05-07T15:10:42.343Z,29.36
2018-05-07T15:11:42.349Z,29.37
2018-05-07T15:12:42.352Z,29.31
2018-05-07T15:13:42.351Z,29.21
2018-05-07T15:14:42.349Z,29.04
2018-05-07T15:15:42.362Z,28.96
2018-05-07T15:16:42.350Z,28.86
2018-05-07T15:17:42.384Z,28.68
2018-05-07T15:18:42.361Z,28.49
2018-05-07T15:19:42.493Z,28.33
2018-05-07T15:20:42.365Z,28.19
2018-05-07T15:21:42.358Z,28.04
2018-05-07T15:22:42.354Z,27.94
2018-05-07T15:23:42.354Z,27.88
2018-05-07T15:24:42.364Z,27.81
2018-05-07T15:25:42.364Z,27.69
2018-05-07T15:26:44.437Z,27.66
2018-05-07T15:27:42.363Z,27.57
2018-05-07T15:28:42.363Z,27.55
2018-05-07T15:29:42.402Z,27.54
2018-05-07T15:30:42.369Z,27.40
2018-05-07T15:31:42.379Z,27.43
2018-05-07T15:32:43.316Z,27.27
2018-05-07T15:33:42.364Z,27.18
2018-05-07T15:34:42.374Z,27.04
2018-05-07T15:35:42.458Z,27.02
2018-05-07T15:36:42.371Z,26.95
2018-05-07T15:37:42.400Z,26.94
2018-05-07T15:38:42.370Z,26.82
2018-05-07T15:39:43.330Z,26.76
2018-05-07T15:40:42.392Z,26.69
2018-05-07T15:41:42.366Z,26.54
2018-05-07T15:42:42.363Z,26.52
2018-05-07T15:43:42.370Z,26.54
2018-05-07T15:44:42.404Z,26.47
2018-05-07T15:45:42.368Z,26.39
2018-05-07T15:46:42.363Z,26.35
2018-05-07T15:47:42.359Z,26.36
2018-05-07T15:48:42.362Z,26.35
2018-05-07T15:49:42.361Z,26.43
2018-05-07T15:50:42.358Z,26.37
2018-05-07T15:51:42.360Z,26.36
2018-05-07T15:52:42.366Z,26.40
2018-05-07T15:53:42.368Z,26.36
2018-05-07T15:54:42.382Z,26.25
2018-05-07T15:55:42.361Z,26.06
2018-05-07T15:56:42.394Z,26.09
2018-05-07T15:57:42.361Z,25.97
2018-05-07T15:58:42.363Z,25.99
2018-05-07T15:59:42.360Z,25.87
2018-05-07T16:00:42.365Z,25.92
2018-05-07T16:01:42.356Z,25.90
2018-05-07T16:02:42.373Z,25.87
2018-05-07T16:03:43.375Z,25.80
2018-05-07T16:04:42.344Z,25.80
2018-05-07T16:05:42.446Z,25.73
2018-05-07T16:06:42.341Z,25.77
2018-05-07T16:07:42.339Z,25.77
2018-05-07T16:08:42.413Z,25.61
2018-05-07T16:09:42.340Z,25.67
2018-05-07T16:10:42.335Z,25.60
2018-05-07T16:11:42.327Z,25.65
2018-05-07T16:12:42.335Z,25.62
2018-05-07T16:13:42.321Z,25.64
2018-05-07T16:14:42.463Z,25.62
2018-05-07T16:15:42.332Z,25.58
2018-05-07T16:16:42.323Z,25.58
2018-05-07T16:17:42.353Z,25.61